sensor_id;sensor_type;location;lat;lon;timestamp;P1;durP1;ratioP1;P2;durP2;ratioP2
13943;SDS011;7044;53.286;8.534;2024-03-23T00:53:21;10.98;;;2.10;;
13943;SDS011;7044;53.286;8.534;2024-03-23T00:55:48;16.37;;;2.50;;
13943;SDS011;7044;53.286;8.534;2024-03-23T00:58:15;9.33;;;3.00;;
13943;SDS011;7044;53.286;8.534;2024-03-23T01:00:41;17.13;;;3.30;;
13943;SDS011;7044;53.286;8.534;2024-03-23T01:03:07;12.50;;;2.97;;
13943;SDS011;7044;53.286;8.534;2024-03-23T01:05:33;15.93;;;3.35;;
13943;SDS011;7044;53.286;8.534;2024-03-23T01:08:00;13.93;;;2.67;;
13943;SDS011;7044;53.286;8.534;2024-03-23T01:10:28;14.67;;;3.07;;
13943;SDS011;7044;53.286;8.534;2024-03-23T01:12:55;13.07;;;3.17;;
13943;SDS011;7044;53.286;8.534;2024-03-23T01:15:21;15.43;;;3.23;;
13943;SDS011;7044;53.286;8.534;2024-03-23T01:17:48;17.40;;;3.43;;
13943;SDS011;7044;53.286;8.534;2024-03-23T01:20:14;11.20;;;2.93;;
13943;SDS011;7044;53.286;8.534;2024-03-23T01:22:41;9.80;;;2.70;;
13943;SDS011;7044;53.286;8.534;2024-03-23T01:25:07;13.97;;;3.00;;
13943;SDS011;7044;53.286;8.534;2024-03-23T01:27:35;16.60;;;3.07;;
13943;SDS011;7044;53.286;8.534;2024-03-23T01:30:01;12.27;;;3.03;;
13943;SDS011;7044;53.286;8.534;2024-03-23T01:32:28;15.70;;;3.07;;
13943;SDS011;7044;53.286;8.534;2024-03-23T01:34:54;15.60;;;2.50;;
13943;SDS011;7044;53.286;8.534;2024-03-23T01:37:21;12.23;;;2.73;;
13943;SDS011;7044;53.286;8.534;2024-03-23T01:39:47;11.03;;;2.27;;
13943;SDS011;7044;53.286;8.534;2024-03-23T01:42:14;12.67;;;2.77;;
13943;SDS011;7044;53.286;8.534;2024-03-23T01:44:41;20.33;;;3.07;;
13943;SDS011;7044;53.286;8.534;2024-03-23T01:47:08;14.60;;;2.63;;
13943;SDS011;7044;53.286;8.534;2024-03-23T01:49:34;14.57;;;3.07;;
13943;SDS011;7044;53.286;8.534;2024-03-23T01:52:02;16.70;;;3.17;;
13943;SDS011;7044;53.286;8.534;2024-03-23T01:54:28;8.77;;;2.77;;
13943;SDS011;7044;53.286;8.534;2024-03-23T01:56:56;11.93;;;2.90;;
13943;SDS011;7044;53.286;8.534;2024-03-23T01:59:22;7.60;;;2.53;;
13943;SDS011;7044;53.286;8.534;2024-03-23T02:01:51;13.43;;;3.07;;
13943;SDS011;7044;53.286;8.534;2024-03-23T02:04:17;7.30;;;2.23;;
13943;SDS011;7044;53.286;8.534;2024-03-23T02:06:44;18.00;;;3.10;;
13943;SDS011;7044;53.286;8.534;2024-03-23T02:09:10;19.17;;;2.90;;
13943;SDS011;7044;53.286;8.534;2024-03-23T02:11:38;14.47;;;3.33;;
13943;SDS011;7044;53.286;8.534;2024-03-23T02:14:04;10.47;;;2.83;;
13943;SDS011;7044;53.286;8.534;2024-03-23T02:16:32;16.23;;;2.83;;
13943;SDS011;7044;53.286;8.534;2024-03-23T02:19:00;9.07;;;2.57;;
13943;SDS011;7044;53.286;8.534;2024-03-23T02:21:26;16.70;;;2.93;;
13943;SDS011;7044;53.286;8.534;2024-03-23T02:23:55;8.73;;;3.10;;
13943;SDS011;7044;53.286;8.534;2024-03-23T02:26:22;12.60;;;3.10;;
13943;SDS011;7044;53.286;8.534;2024-03-23T02:28:47;12.90;;;2.87;;
13943;SDS011;7044;53.286;8.534;2024-03-23T02:31:15;14.77;;;3.00;;
13943;SDS011;7044;53.286;8.534;2024-03-23T02:33:40;13.03;;;2.33;;
13943;SDS011;7044;53.286;8.534;2024-03-23T02:36:07;16.50;;;3.00;;
13943;SDS011;7044;53.286;8.534;2024-03-23T02:38:33;10.50;;;2.97;;
13943;SDS011;7044;53.286;8.534;2024-03-23T02:41:04;10.67;;;2.63;;
13943;SDS011;7044;53.286;8.534;2024-03-23T02:43:30;16.40;;;3.33;;
13943;SDS011;7044;53.286;8.534;2024-03-23T02:45:57;9.50;;;2.60;;
13943;SDS011;7044;53.286;8.534;2024-03-23T02:48:23;14.00;;;3.23;;
13943;SDS011;7044;53.286;8.534;2024-03-23T02:50:50;10.53;;;2.60;;
13943;SDS011;7044;53.286;8.534;2024-03-23T02:53:16;13.53;;;3.20;;
13943;SDS011;7044;53.286;8.534;2024-03-23T02:55:43;17.13;;;3.17;;
13943;SDS011;7044;53.286;8.534;2024-03-23T02:58:10;8.90;;;2.37;;
13943;SDS011;7044;53.286;8.534;2024-03-23T03:00:37;13.10;;;3.33;;
13943;SDS011;7044;53.286;8.534;2024-03-23T03:03:03;14.57;;;2.97;;
13943;SDS011;7044;53.286;8.534;2024-03-23T03:05:32;11.63;;;3.73;;
13943;SDS011;7044;53.286;8.534;2024-03-23T03:07:58;8.53;;;2.20;;
13943;SDS011;7044;53.286;8.534;2024-03-23T03:10:25;11.63;;;2.57;;
13943;SDS011;7044;53.286;8.534;2024-03-23T03:12:50;9.63;;;2.67;;
13943;SDS011;7044;53.286;8.534;2024-03-23T03:15:19;16.73;;;2.50;;
13943;SDS011;7044;53.286;8.534;2024-03-23T03:17:44;13.47;;;3.20;;
13943;SDS011;7044;53.286;8.534;2024-03-23T03:20:12;10.67;;;2.47;;
13943;SDS011;7044;53.286;8.534;2024-03-23T03:22:38;14.87;;;2.03;;
13943;SDS011;7044;53.286;8.534;2024-03-23T03:25:05;11.23;;;2.80;;
13943;SDS011;7044;53.286;8.534;2024-03-23T03:27:32;11.57;;;3.47;;
13943;SDS011;7044;53.286;8.534;2024-03-23T03:29:59;8.30;;;2.70;;
13943;SDS011;7044;53.286;8.534;2024-03-23T03:32:28;14.47;;;3.10;;
13943;SDS011;7044;53.286;8.534;2024-03-23T03:34:55;14.60;;;3.80;;
13943;SDS011;7044;53.286;8.534;2024-03-23T03:37:21;14.07;;;2.90;;
13943;SDS011;7044;53.286;8.534;2024-03-23T03:39:48;14.20;;;3.10;;
13943;SDS011;7044;53.286;8.534;2024-03-23T03:42:14;6.00;;;2.23;;
13943;SDS011;7044;53.286;8.534;2024-03-23T03:44:41;19.23;;;2.73;;
13943;SDS011;7044;53.286;8.534;2024-03-23T03:47:07;8.37;;;3.10;;
13943;SDS011;7044;53.286;8.534;2024-03-23T03:49:35;14.83;;;3.30;;
13943;SDS011;7044;53.286;8.534;2024-03-23T03:52:01;13.63;;;2.67;;
13943;SDS011;7044;53.286;8.534;2024-03-23T03:54:28;11.03;;;3.90;;
13943;SDS011;7044;53.286;8.534;2024-03-23T03:56:54;14.30;;;2.43;;
13943;SDS011;7044;53.286;8.534;2024-03-23T03:59:20;11.43;;;2.93;;
13943;SDS011;7044;53.286;8.534;2024-03-23T04:01:46;10.60;;;2.20;;
13943;SDS011;7044;53.286;8.534;2024-03-23T04:04:13;8.23;;;2.17;;
13943;SDS011;7044;53.286;8.534;2024-03-23T04:06:42;14.07;;;2.30;;
13943;SDS011;7044;53.286;8.534;2024-03-23T04:09:09;14.47;;;3.17;;
13943;SDS011;7044;53.286;8.534;2024-03-23T04:11:35;15.17;;;3.63;;
13943;SDS011;7044;53.286;8.534;2024-03-23T04:14:02;14.67;;;2.43;;
13943;SDS011;7044;53.286;8.534;2024-03-23T04:16:28;11.70;;;3.23;;
13943;SDS011;7044;53.286;8.534;2024-03-23T04:18:56;10.83;;;2.57;;
13943;SDS011;7044;53.286;8.534;2024-03-23T04:21:22;10.83;;;2.97;;
13943;SDS011;7044;53.286;8.534;2024-03-23T04:23:50;16.37;;;2.60;;
13943;SDS011;7044;53.286;8.534;2024-03-23T04:26:16;20.03;;;3.50;;
13943;SDS011;7044;53.286;8.534;2024-03-23T04:28:43;12.13;;;2.60;;
13943;SDS011;7044;53.286;8.534;2024-03-23T04:31:08;17.17;;;2.57;;
13943;SDS011;7044;53.286;8.534;2024-03-23T04:33:35;9.60;;;2.33;;
13943;SDS011;7044;53.286;8.534;2024-03-23T04:36:01;8.67;;;2.50;;
13943;SDS011;7044;53.286;8.534;2024-03-23T04:38:29;20.93;;;3.20;;
13943;SDS011;7044;53.286;8.534;2024-03-23T04:40:57;18.30;;;3.23;;
13943;SDS011;7044;53.286;8.534;2024-03-23T04:43:25;19.30;;;3.30;;
13943;SDS011;7044;53.286;8.534;2024-03-23T04:45:52;18.67;;;2.87;;
13943;SDS011;7044;53.286;8.534;2024-03-23T04:48:20;17.57;;;3.37;;
13943;SDS011;7044;53.286;8.534;2024-03-23T04:50:47;11.33;;;2.70;;
13943;SDS011;7044;53.286;8.534;2024-03-23T04:53:14;7.13;;;2.57;;
13943;SDS011;7044;53.286;8.534;2024-03-23T04:55:41;8.23;;;2.80;;
13943;SDS011;7044;53.286;8.534;2024-03-23T04:58:09;13.30;;;3.43;;
13943;SDS011;7044;53.286;8.534;2024-03-23T05:00:35;15.13;;;3.93;;
13943;SDS011;7044;53.286;8.534;2024-03-23T05:03:01;9.60;;;2.40;;
13943;SDS011;7044;53.286;8.534;2024-03-23T05:05:29;12.80;;;3.50;;
13943;SDS011;7044;53.286;8.534;2024-03-23T05:07:55;14.13;;;2.70;;
13943;SDS011;7044;53.286;8.534;2024-03-23T05:10:21;12.57;;;3.27;;
13943;SDS011;7044;53.286;8.534;2024-03-23T05:12:48;10.87;;;2.83;;
13943;SDS011;7044;53.286;8.534;2024-03-23T05:15:15;12.27;;;2.50;;
13943;SDS011;7044;53.286;8.534;2024-03-23T05:17:42;12.00;;;3.20;;
13943;SDS011;7044;53.286;8.534;2024-03-23T05:20:08;21.70;;;3.50;;
13943;SDS011;7044;53.286;8.534;2024-03-23T05:22:37;6.73;;;2.73;;
13943;SDS011;7044;53.286;8.534;2024-03-23T05:25:03;10.83;;;2.90;;
13943;SDS011;7044;53.286;8.534;2024-03-23T05:27:31;16.67;;;3.57;;
13943;SDS011;7044;53.286;8.534;2024-03-23T05:29:58;12.53;;;3.40;;
13943;SDS011;7044;53.286;8.534;2024-03-23T05:32:26;14.13;;;3.13;;
13943;SDS011;7044;53.286;8.534;2024-03-23T05:34:53;13.80;;;2.97;;
13943;SDS011;7044;53.286;8.534;2024-03-23T05:37:21;14.47;;;2.90;;
13943;SDS011;7044;53.286;8.534;2024-03-23T05:39:47;17.43;;;3.43;;
13943;SDS011;7044;53.286;8.534;2024-03-23T05:42:15;14.93;;;3.20;;
13943;SDS011;7044;53.286;8.534;2024-03-23T05:44:41;15.87;;;2.87;;
13943;SDS011;7044;53.286;8.534;2024-03-23T05:47:09;19.43;;;3.07;;
13943;SDS011;7044;53.286;8.534;2024-03-23T05:49:37;13.80;;;2.70;;
13943;SDS011;7044;53.286;8.534;2024-03-23T05:52:04;18.20;;;2.53;;
13943;SDS011;7044;53.286;8.534;2024-03-23T05:54:30;14.03;;;3.37;;
13943;SDS011;7044;53.286;8.534;2024-03-23T05:56:56;15.77;;;3.20;;
13943;SDS011;7044;53.286;8.534;2024-03-23T05:59:22;10.70;;;2.23;;
13943;SDS011;7044;53.286;8.534;2024-03-23T06:01:49;13.27;;;2.80;;
13943;SDS011;7044;53.286;8.534;2024-03-23T06:04:15;10.90;;;2.50;;
13943;SDS011;7044;53.286;8.534;2024-03-23T06:06:43;22.47;;;3.33;;
13943;SDS011;7044;53.286;8.534;2024-03-23T06:09:09;19.13;;;3.73;;
13943;SDS011;7044;53.286;8.534;2024-03-23T06:11:37;15.00;;;3.37;;
13943;SDS011;7044;53.286;8.534;2024-03-23T06:14:03;13.03;;;2.83;;
13943;SDS011;7044;53.286;8.534;2024-03-23T06:16:31;10.47;;;2.37;;
13943;SDS011;7044;53.286;8.534;2024-03-23T06:18:56;14.03;;;3.20;;
13943;SDS011;7044;53.286;8.534;2024-03-23T06:21:23;11.50;;;3.17;;
13943;SDS011;7044;53.286;8.534;2024-03-23T06:23:52;8.13;;;2.30;;
13943;SDS011;7044;53.286;8.534;2024-03-23T06:26:19;20.60;;;3.57;;
13943;SDS011;7044;53.286;8.534;2024-03-23T06:28:45;8.53;;;3.70;;
13943;SDS011;7044;53.286;8.534;2024-03-23T06:31:12;17.97;;;2.80;;
13943;SDS011;7044;53.286;8.534;2024-03-23T06:33:38;18.50;;;3.20;;
13943;SDS011;7044;53.286;8.534;2024-03-23T06:36:05;15.77;;;3.73;;
13943;SDS011;7044;53.286;8.534;2024-03-23T06:38:33;15.07;;;3.43;;
13943;SDS011;7044;53.286;8.534;2024-03-23T06:41:03;13.03;;;3.13;;
13943;SDS011;7044;53.286;8.534;2024-03-23T06:43:29;11.03;;;3.50;;
13943;SDS011;7044;53.286;8.534;2024-03-23T06:45:56;12.77;;;2.80;;
13943;SDS011;7044;53.286;8.534;2024-03-23T06:48:22;13.80;;;3.30;;
13943;SDS011;7044;53.286;8.534;2024-03-23T06:50:49;14.17;;;3.43;;
13943;SDS011;7044;53.286;8.534;2024-03-23T06:53:15;14.60;;;3.60;;
13943;SDS011;7044;53.286;8.534;2024-03-23T06:55:42;14.37;;;2.60;;
13943;SDS011;7044;53.286;8.534;2024-03-23T06:58:17;10.33;;;3.40;;
13943;SDS011;7044;53.286;8.534;2024-03-23T07:00:44;19.73;;;3.00;;
13943;SDS011;7044;53.286;8.534;2024-03-23T07:03:10;11.43;;;2.70;;
13943;SDS011;7044;53.286;8.534;2024-03-23T07:05:37;12.60;;;2.73;;
13943;SDS011;7044;53.286;8.534;2024-03-23T07:08:03;16.10;;;3.10;;
13943;SDS011;7044;53.286;8.534;2024-03-23T07:10:30;17.20;;;3.50;;
13943;SDS011;7044;53.286;8.534;2024-03-23T07:12:56;8.13;;;3.03;;
13943;SDS011;7044;53.286;8.534;2024-03-23T07:15:25;16.70;;;2.40;;
13943;SDS011;7044;53.286;8.534;2024-03-23T07:17:50;15.77;;;2.97;;
13943;SDS011;7044;53.286;8.534;2024-03-23T07:20:17;11.70;;;2.90;;
13943;SDS011;7044;53.286;8.534;2024-03-23T07:22:45;24.73;;;3.20;;
13943;SDS011;7044;53.286;8.534;2024-03-23T07:25:12;6.20;;;2.30;;
13943;SDS011;7044;53.286;8.534;2024-03-23T07:27:38;18.93;;;3.87;;
13943;SDS011;7044;53.286;8.534;2024-03-23T07:30:06;12.30;;;2.53;;
13943;SDS011;7044;53.286;8.534;2024-03-23T07:32:35;15.67;;;3.23;;
13943;SDS011;7044;53.286;8.534;2024-03-23T07:35:02;13.67;;;3.47;;
13943;SDS011;7044;53.286;8.534;2024-03-23T07:37:29;10.77;;;3.07;;
13943;SDS011;7044;53.286;8.534;2024-03-23T07:39:56;14.03;;;3.20;;
13943;SDS011;7044;53.286;8.534;2024-03-23T07:42:22;11.57;;;3.30;;
13943;SDS011;7044;53.286;8.534;2024-03-23T07:44:51;10.30;;;2.60;;
13943;SDS011;7044;53.286;8.534;2024-03-23T07:47:17;11.70;;;2.67;;
13943;SDS011;7044;53.286;8.534;2024-03-23T07:49:45;17.70;;;2.80;;
13943;SDS011;7044;53.286;8.534;2024-03-23T07:52:11;12.87;;;2.87;;
13943;SDS011;7044;53.286;8.534;2024-03-23T07:54:38;11.57;;;2.70;;
13943;SDS011;7044;53.286;8.534;2024-03-23T07:57:04;19.63;;;3.03;;
13943;SDS011;7044;53.286;8.534;2024-03-23T07:59:31;7.97;;;2.37;;
13943;SDS011;7044;53.286;8.534;2024-03-23T08:01:59;11.20;;;3.00;;
13943;SDS011;7044;53.286;8.534;2024-03-23T08:04:26;9.60;;;2.43;;
13943;SDS011;7044;53.286;8.534;2024-03-23T08:06:53;7.53;;;2.60;;
13943;SDS011;7044;53.286;8.534;2024-03-23T08:09:20;9.27;;;2.23;;
13943;SDS011;7044;53.286;8.534;2024-03-23T08:11:46;14.60;;;2.67;;
13943;SDS011;7044;53.286;8.534;2024-03-23T08:14:13;12.10;;;2.57;;
13943;SDS011;7044;53.286;8.534;2024-03-23T08:16:39;7.40;;;2.13;;
13943;SDS011;7044;53.286;8.534;2024-03-23T08:19:06;12.90;;;2.63;;
13943;SDS011;7044;53.286;8.534;2024-03-23T08:21:33;4.00;;;1.90;;
13943;SDS011;7044;53.286;8.534;2024-03-23T08:24:01;8.23;;;2.70;;
13943;SDS011;7044;53.286;8.534;2024-03-23T08:26:28;9.67;;;2.50;;
13943;SDS011;7044;53.286;8.534;2024-03-23T08:28:55;7.50;;;2.27;;
13943;SDS011;7044;53.286;8.534;2024-03-23T08:31:20;12.83;;;2.40;;
13943;SDS011;7044;53.286;8.534;2024-03-23T08:33:47;7.00;;;2.27;;
13943;SDS011;7044;53.286;8.534;2024-03-23T08:36:13;19.47;;;2.80;;
13943;SDS011;7044;53.286;8.534;2024-03-23T08:38:40;7.13;;;2.33;;
13943;SDS011;7044;53.286;8.534;2024-03-23T08:41:08;10.90;;;2.97;;
13943;SDS011;7044;53.286;8.534;2024-03-23T08:43:36;11.17;;;2.43;;
13943;SDS011;7044;53.286;8.534;2024-03-23T08:46:03;7.53;;;2.23;;
13943;SDS011;7044;53.286;8.534;2024-03-23T08:48:31;16.80;;;2.80;;
13943;SDS011;7044;53.286;8.534;2024-03-23T08:51:00;10.83;;;2.37;;
13943;SDS011;7044;53.286;8.534;2024-03-23T08:53:28;8.57;;;1.77;;
13943;SDS011;7044;53.286;8.534;2024-03-23T08:55:54;12.50;;;2.13;;
13943;SDS011;7044;53.286;8.534;2024-03-23T08:58:23;4.60;;;1.57;;
13943;SDS011;7044;53.286;8.534;2024-03-23T09:00:50;7.33;;;1.83;;
13943;SDS011;7044;53.286;8.534;2024-03-23T09:03:17;11.10;;;2.63;;
13943;SDS011;7044;53.286;8.534;2024-03-23T09:05:43;10.67;;;1.80;;
13943;SDS011;7044;53.286;8.534;2024-03-23T09:08:10;10.53;;;1.90;;
13943;SDS011;7044;53.286;8.534;2024-03-23T09:10:38;11.10;;;2.20;;
13943;SDS011;7044;53.286;8.534;2024-03-23T09:13:05;6.10;;;1.90;;
13943;SDS011;7044;53.286;8.534;2024-03-23T09:15:32;10.57;;;2.40;;
13943;SDS011;7044;53.286;8.534;2024-03-23T09:18:00;9.23;;;1.57;;
13943;SDS011;7044;53.286;8.534;2024-03-23T09:20:26;8.90;;;2.67;;
13943;SDS011;7044;53.286;8.534;2024-03-23T09:22:53;5.85;;;1.85;;
13943;SDS011;7044;53.286;8.534;2024-03-23T09:25:19;7.10;;;2.05;;
13943;SDS011;7044;53.286;8.534;2024-03-23T09:27:46;7.72;;;1.83;;
13943;SDS011;7044;53.286;8.534;2024-03-23T09:30:12;9.57;;;2.20;;
13943;SDS011;7044;53.286;8.534;2024-03-23T09:32:41;10.07;;;2.33;;
13943;SDS011;7044;53.286;8.534;2024-03-23T09:35:08;11.07;;;1.98;;
13943;SDS011;7044;53.286;8.534;2024-03-23T09:37:35;8.25;;;1.65;;
13943;SDS011;7044;53.286;8.534;2024-03-23T09:40:01;6.38;;;1.70;;
13943;SDS011;7044;53.286;8.534;2024-03-23T09:42:30;6.50;;;1.42;;
13943;SDS011;7044;53.286;8.534;2024-03-23T09:44:56;6.47;;;1.88;;
13943;SDS011;7044;53.286;8.534;2024-03-23T09:47:24;5.70;;;1.47;;
13943;SDS011;7044;53.286;8.534;2024-03-23T09:49:51;5.87;;;1.53;;
13943;SDS011;7044;53.286;8.534;2024-03-23T09:52:18;2.60;;;1.38;;
13943;SDS011;7044;53.286;8.534;2024-03-23T09:54:44;5.97;;;2.00;;
13943;SDS011;7044;53.286;8.534;2024-03-23T09:57:11;9.73;;;1.77;;
13943;SDS011;7044;53.286;8.534;2024-03-23T09:59:37;3.17;;;1.40;;
13943;SDS011;7044;53.286;8.534;2024-03-23T10:02:04;5.88;;;1.70;;
13943;SDS011;7044;53.286;8.534;2024-03-23T10:04:35;5.25;;;1.67;;
13943;SDS011;7044;53.286;8.534;2024-03-23T10:07:11;7.43;;;2.05;;
13943;SDS011;7044;53.286;8.534;2024-03-23T10:09:37;6.83;;;1.70;;
13943;SDS011;7044;53.286;8.534;2024-03-23T10:12:08;5.55;;;1.73;;
13943;SDS011;7044;53.286;8.534;2024-03-23T10:14:35;5.13;;;1.35;;
13943;SDS011;7044;53.286;8.534;2024-03-23T10:17:14;5.28;;;1.98;;
13943;SDS011;7044;53.286;8.534;2024-03-23T10:19:42;12.75;;;1.33;;
13943;SDS011;7044;53.286;8.534;2024-03-23T10:22:13;4.50;;;1.40;;
13943;SDS011;7044;53.286;8.534;2024-03-23T10:24:39;2.67;;;1.10;;
13943;SDS011;7044;53.286;8.534;2024-03-23T10:27:06;6.35;;;2.00;;
13943;SDS011;7044;53.286;8.534;2024-03-23T10:29:32;7.30;;;1.90;;
13943;SDS011;7044;53.286;8.534;2024-03-23T10:32:07;6.00;;;1.90;;
13943;SDS011;7044;53.286;8.534;2024-03-23T10:34:33;5.47;;;1.27;;
13943;SDS011;7044;53.286;8.534;2024-03-23T10:37:01;3.80;;;1.52;;
13943;SDS011;7044;53.286;8.534;2024-03-23T10:39:29;5.18;;;1.42;;
13943;SDS011;7044;53.286;8.534;2024-03-23T10:41:58;3.17;;;1.30;;
13943;SDS011;7044;53.286;8.534;2024-03-23T10:44:27;3.03;;;1.33;;
13943;SDS011;7044;53.286;8.534;2024-03-23T10:46:56;7.30;;;1.50;;
13943;SDS011;7044;53.286;8.534;2024-03-23T10:49:25;6.05;;;1.48;;
13943;SDS011;7044;53.286;8.534;2024-03-23T10:51:54;5.80;;;1.50;;
13943;SDS011;7044;53.286;8.534;2024-03-23T10:54:22;4.20;;;1.40;;
13943;SDS011;7044;53.286;8.534;2024-03-23T10:56:53;4.38;;;1.80;;
13943;SDS011;7044;53.286;8.534;2024-03-23T10:59:22;6.30;;;1.20;;
13943;SDS011;7044;53.286;8.534;2024-03-23T11:01:53;3.45;;;1.38;;
13943;SDS011;7044;53.286;8.534;2024-03-23T11:04:29;5.65;;;1.65;;
13943;SDS011;7044;53.286;8.534;2024-03-23T11:06:56;6.20;;;1.52;;
13943;SDS011;7044;53.286;8.534;2024-03-23T11:09:40;10.63;;;1.88;;
13943;SDS011;7044;53.286;8.534;2024-03-23T11:12:27;1.50;;;1.02;;
13943;SDS011;7044;53.286;8.534;2024-03-23T11:14:58;3.63;;;1.27;;
13943;SDS011;7044;53.286;8.534;2024-03-23T11:17:27;4.78;;;1.67;;
13943;SDS011;7044;53.286;8.534;2024-03-23T11:19:53;6.57;;;1.80;;
13943;SDS011;7044;53.286;8.534;2024-03-23T11:22:40;4.50;;;1.67;;
13943;SDS011;7044;53.286;8.534;2024-03-23T11:25:16;7.75;;;2.05;;
13943;SDS011;7044;53.286;8.534;2024-03-23T11:27:47;3.40;;;1.63;;
13943;SDS011;7044;53.286;8.534;2024-03-23T11:30:18;3.08;;;1.30;;
13943;SDS011;7044;53.286;8.534;2024-03-23T11:32:45;5.05;;;1.85;;
13943;SDS011;7044;53.286;8.534;2024-03-23T11:35:25;3.57;;;2.07;;
13943;SDS011;7044;53.286;8.534;2024-03-23T11:38:05;9.55;;;2.15;;
13943;SDS011;7044;53.286;8.534;2024-03-23T11:40:33;5.35;;;1.60;;
13943;SDS011;7044;53.286;8.534;2024-03-23T11:43:01;3.08;;;1.55;;
13943;SDS011;7044;53.286;8.534;2024-03-23T11:45:31;2.25;;;0.68;;
13943;SDS011;7044;53.286;8.534;2024-03-23T11:48:04;2.40;;;0.77;;
13943;SDS011;7044;53.286;8.534;2024-03-23T11:50:32;1.83;;;0.83;;
13943;SDS011;7044;53.286;8.534;2024-03-23T11:53:09;3.57;;;0.50;;
13943;SDS011;7044;53.286;8.534;2024-03-23T11:55:39;0.90;;;0.80;;
13943;SDS011;7044;53.286;8.534;2024-03-23T11:58:07;0.23;;;0.23;;
13943;SDS011;7044;53.286;8.534;2024-03-23T12:00:34;0.87;;;0.47;;
13943;SDS011;7044;53.286;8.534;2024-03-23T12:03:00;4.30;;;0.80;;
13943;SDS011;7044;53.286;8.534;2024-03-23T12:05:27;3.80;;;0.70;;
13943;SDS011;7044;53.286;8.534;2024-03-23T12:07:54;1.30;;;0.57;;
13943;SDS011;7044;53.286;8.534;2024-03-23T12:10:21;2.83;;;0.60;;
13943;SDS011;7044;53.286;8.534;2024-03-23T12:12:58;3.90;;;0.50;;
13943;SDS011;7044;53.286;8.534;2024-03-23T12:15:27;0.40;;;0.40;;
13943;SDS011;7044;53.286;8.534;2024-03-23T12:18:05;3.63;;;0.60;;
13943;SDS011;7044;53.286;8.534;2024-03-23T12:20:33;0.73;;;0.50;;
13943;SDS011;7044;53.286;8.534;2024-03-23T12:23:04;0.53;;;0.47;;
13943;SDS011;7044;53.286;8.534;2024-03-23T12:25:35;0.50;;;0.50;;
13943;SDS011;7044;53.286;8.534;2024-03-23T12:28:01;1.03;;;0.80;;
13943;SDS011;7044;53.286;8.534;2024-03-23T12:30:29;0.53;;;0.53;;
13943;SDS011;7044;53.286;8.534;2024-03-23T12:32:55;3.30;;;0.80;;
13943;SDS011;7044;53.286;8.534;2024-03-23T12:35:22;2.13;;;0.90;;
13943;SDS011;7044;53.286;8.534;2024-03-23T12:37:48;6.70;;;0.80;;
13943;SDS011;7044;53.286;8.534;2024-03-23T12:40:15;1.93;;;0.83;;
13943;SDS011;7044;53.286;8.534;2024-03-23T12:42:41;2.13;;;0.83;;
13943;SDS011;7044;53.286;8.534;2024-03-23T12:45:08;2.47;;;0.67;;
13943;SDS011;7044;53.286;8.534;2024-03-23T12:47:35;2.77;;;0.73;;
13943;SDS011;7044;53.286;8.534;2024-03-23T12:50:02;1.20;;;0.70;;
13943;SDS011;7044;53.286;8.534;2024-03-23T12:52:28;6.37;;;1.30;;
13943;SDS011;7044;53.286;8.534;2024-03-23T12:54:55;1.03;;;0.53;;
13943;SDS011;7044;53.286;8.534;2024-03-23T12:57:22;2.57;;;1.17;;
13943;SDS011;7044;53.286;8.534;2024-03-23T12:59:50;2.93;;;1.40;;
13943;SDS011;7044;53.286;8.534;2024-03-23T13:02:18;4.13;;;1.13;;
13943;SDS011;7044;53.286;8.534;2024-03-23T13:04:49;6.57;;;1.03;;
13943;SDS011;7044;53.286;8.534;2024-03-23T13:07:15;1.67;;;0.70;;
13943;SDS011;7044;53.286;8.534;2024-03-23T13:09:42;1.50;;;0.90;;
13943;SDS011;7044;53.286;8.534;2024-03-23T13:12:09;1.10;;;0.73;;
13943;SDS011;7044;53.286;8.534;2024-03-23T13:14:37;1.20;;;0.53;;
13943;SDS011;7044;53.286;8.534;2024-03-23T13:17:05;3.80;;;1.00;;
13943;SDS011;7044;53.286;8.534;2024-03-23T13:19:31;3.03;;;0.80;;
13943;SDS011;7044;53.286;8.534;2024-03-23T13:22:00;4.23;;;0.93;;
13943;SDS011;7044;53.286;8.534;2024-03-23T13:24:27;3.80;;;1.07;;
13943;SDS011;7044;53.286;8.534;2024-03-23T13:26:54;1.23;;;1.03;;
13943;SDS011;7044;53.286;8.534;2024-03-23T13:29:21;4.77;;;1.03;;
13943;SDS011;7044;53.286;8.534;2024-03-23T13:31:49;2.87;;;1.40;;
13943;SDS011;7044;53.286;8.534;2024-03-23T13:34:16;3.80;;;1.20;;
13943;SDS011;7044;53.286;8.534;2024-03-23T13:36:44;2.87;;;0.80;;
13943;SDS011;7044;53.286;8.534;2024-03-23T13:39:13;2.00;;;0.97;;
13943;SDS011;7044;53.286;8.534;2024-03-23T13:41:41;5.50;;;1.30;;
13943;SDS011;7044;53.286;8.534;2024-03-23T13:44:08;0.60;;;0.60;;
13943;SDS011;7044;53.286;8.534;2024-03-23T13:46:36;2.83;;;1.03;;
13943;SDS011;7044;53.286;8.534;2024-03-23T13:49:02;2.47;;;1.00;;
13943;SDS011;7044;53.286;8.534;2024-03-23T13:51:29;2.20;;;0.98;;
13943;SDS011;7044;53.286;8.534;2024-03-23T13:53:55;4.03;;;1.20;;
13943;SDS011;7044;53.286;8.534;2024-03-23T13:56:27;4.65;;;1.70;;
13943;SDS011;7044;53.286;8.534;2024-03-23T13:58:53;2.60;;;1.08;;
13943;SDS011;7044;53.286;8.534;2024-03-23T14:01:20;3.10;;;1.40;;
13943;SDS011;7044;53.286;8.534;2024-03-23T14:03:47;2.33;;;1.10;;
13943;SDS011;7044;53.286;8.534;2024-03-23T14:06:14;5.53;;;1.67;;
13943;SDS011;7044;53.286;8.534;2024-03-23T14:08:39;5.38;;;1.33;;
13943;SDS011;7044;53.286;8.534;2024-03-23T14:11:07;3.13;;;1.42;;
13943;SDS011;7044;53.286;8.534;2024-03-23T14:13:35;4.13;;;1.10;;
13943;SDS011;7044;53.286;8.534;2024-03-23T14:16:02;7.68;;;1.77;;
13943;SDS011;7044;53.286;8.534;2024-03-23T14:18:28;1.60;;;1.10;;
13943;SDS011;7044;53.286;8.534;2024-03-23T14:20:56;3.22;;;1.30;;
13943;SDS011;7044;53.286;8.534;2024-03-23T14:23:23;6.83;;;1.60;;
13943;SDS011;7044;53.286;8.534;2024-03-23T14:25:52;6.73;;;1.60;;
13943;SDS011;7044;53.286;8.534;2024-03-23T14:28:19;5.57;;;1.47;;
13943;SDS011;7044;53.286;8.534;2024-03-23T14:30:48;5.40;;;0.93;;
13943;SDS011;7044;53.286;8.534;2024-03-23T14:33:14;2.83;;;1.20;;
13943;SDS011;7044;53.286;8.534;2024-03-23T14:35:41;3.97;;;1.13;;
13943;SDS011;7044;53.286;8.534;2024-03-23T14:38:07;5.63;;;0.93;;
13943;SDS011;7044;53.286;8.534;2024-03-23T14:40:34;3.43;;;0.70;;
13943;SDS011;7044;53.286;8.534;2024-03-23T14:43:00;2.10;;;0.73;;
13943;SDS011;7044;53.286;8.534;2024-03-23T14:45:27;0.53;;;0.43;;
13943;SDS011;7044;53.286;8.534;2024-03-23T14:47:54;1.60;;;0.50;;
13943;SDS011;7044;53.286;8.534;2024-03-23T14:50:23;3.37;;;0.97;;
13943;SDS011;7044;53.286;8.534;2024-03-23T14:52:49;1.57;;;0.83;;
13943;SDS011;7044;53.286;8.534;2024-03-23T14:55:16;1.07;;;0.50;;
13943;SDS011;7044;53.286;8.534;2024-03-23T14:57:42;3.50;;;1.07;;
13943;SDS011;7044;53.286;8.534;2024-03-23T15:00:09;1.90;;;0.77;;
13943;SDS011;7044;53.286;8.534;2024-03-23T15:02:37;1.50;;;0.80;;
13943;SDS011;7044;53.286;8.534;2024-03-23T15:05:05;2.90;;;1.17;;
13943;SDS011;7044;53.286;8.534;2024-03-23T15:07:34;2.50;;;1.00;;
13943;SDS011;7044;53.286;8.534;2024-03-23T15:10:01;1.80;;;0.73;;
13943;SDS011;7044;53.286;8.534;2024-03-23T15:12:29;2.63;;;1.00;;
13943;SDS011;7044;53.286;8.534;2024-03-23T15:14:58;3.17;;;1.00;;
13943;SDS011;7044;53.286;8.534;2024-03-23T15:17:23;3.10;;;1.00;;
13943;SDS011;7044;53.286;8.534;2024-03-23T15:19:50;2.20;;;0.90;;
13943;SDS011;7044;53.286;8.534;2024-03-23T15:22:18;2.13;;;0.80;;
13943;SDS011;7044;53.286;8.534;2024-03-23T15:24:45;2.87;;;1.17;;
13943;SDS011;7044;53.286;8.534;2024-03-23T15:27:11;2.27;;;1.00;;
13943;SDS011;7044;53.286;8.534;2024-03-23T15:29:38;4.07;;;0.93;;
13943;SDS011;7044;53.286;8.534;2024-03-23T15:32:04;4.20;;;1.30;;
13943;SDS011;7044;53.286;8.534;2024-03-23T15:34:31;4.27;;;1.03;;
13943;SDS011;7044;53.286;8.534;2024-03-23T15:36:57;4.93;;;1.10;;
13943;SDS011;7044;53.286;8.534;2024-03-23T15:39:25;3.77;;;0.90;;
13943;SDS011;7044;53.286;8.534;2024-03-23T15:41:51;2.27;;;0.97;;
13943;SDS011;7044;53.286;8.534;2024-03-23T15:44:19;3.20;;;0.80;;
13943;SDS011;7044;53.286;8.534;2024-03-23T15:46:45;2.27;;;0.97;;
13943;SDS011;7044;53.286;8.534;2024-03-23T15:49:12;3.33;;;1.27;;